Terminal Aerodrome Forecast
Issued by NWS

Home | Current Version | Previous Version | Text Only | Print | Product List | Glossary On
Versions: 1 2 3 4 5 6 7 8 9 10 11 12 13
740
FTUS42 TJSJ 140534
TAFJBQ
TAF
TJBQ 140534Z 1406/1506 09005KT P6SM SCT080
     FM141300 07011KT P6SM SCT030 SCT040
     FM142000 09010KT P6SM VCSH SCT030 BKN050
      AMD NOT SKED TIL 141100=

USA.gov is the U.S. government's official web portal to all federal, state and local government web resources and services.